createdAt,value
2022-10-20T00:00:50.697Z,6.4
2022-10-20T00:02:50.741Z,6.4
2022-10-20T00:04:50.574Z,6.4
2022-10-20T00:06:50.580Z,6.4
2022-10-20T00:08:50.573Z,6.3
2022-10-20T00:10:50.574Z,6.2
2022-10-20T00:12:50.257Z,6.2
2022-10-20T00:14:50.960Z,6.2
2022-10-20T00:16:50.781Z,6.2
2022-10-20T00:18:50.321Z,6.2
2022-10-20T00:20:50.885Z,6.2
2022-10-20T00:22:50.454Z,6.2
2022-10-20T00:24:50.124Z,6.2
2022-10-20T00:26:50.057Z,6.2
2022-10-20T00:28:50.640Z,6.2
2022-10-20T00:30:50.815Z,6.2
2022-10-20T00:32:50.128Z,6.2
2022-10-20T00:34:50.418Z,6.2
2022-10-20T00:36:51.935Z,6.2
2022-10-20T00:38:50.556Z,6.2
2022-10-20T00:40:50.204Z,6.2
2022-10-20T00:42:50.287Z,6.1
2022-10-20T00:44:50.134Z,6.1
2022-10-20T00:46:50.140Z,6.2
2022-10-20T00:48:50.649Z,6.2
2022-10-20T00:50:50.283Z,6.2
2022-10-20T00:52:50.871Z,6.2
2022-10-20T00:54:50.705Z,6.2
2022-10-20T00:56:50.917Z,6.2
2022-10-20T00:58:50.383Z,6.2
2022-10-20T01:00:50.975Z,6.2
2022-10-20T01:02:50.636Z,6.1
2022-10-20T01:04:50.829Z,6.1
2022-10-20T01:06:50.713Z,6.1
2022-10-20T01:08:50.402Z,6.1
2022-10-20T01:10:50.226Z,6.1
2022-10-20T01:12:50.921Z,6.1
2022-10-20T01:14:50.748Z,6.1
2022-10-20T01:16:50.624Z,6.1
2022-10-20T01:18:50.044Z,6.1
2022-10-20T01:20:50.506Z,6.1
2022-10-20T01:22:50.020Z,6.1
2022-10-20T01:24:50.524Z,6.1
2022-10-20T01:26:50.281Z,6.1
2022-10-20T01:28:50.752Z,6.0
2022-10-20T01:30:50.305Z,6.0
2022-10-20T01:32:50.772Z,6.0
2022-10-20T01:34:53.606Z,6.0
2022-10-20T01:36:50.607Z,6.0
2022-10-20T01:38:50.048Z,6.0
2022-10-20T01:40:50.625Z,6.0
2022-10-20T01:42:50.135Z,6.0
2022-10-20T01:44:50.684Z,6.0
2022-10-20T01:46:50.522Z,6.0
2022-10-20T01:48:50.057Z,6.0
2022-10-20T01:50:50.511Z,6.0
2022-10-20T01:52:50.926Z,6.0
2022-10-20T01:54:50.633Z,6.0
2022-10-20T01:56:50.494Z,6.0
2022-10-20T01:58:50.019Z,5.9
2022-10-20T02:00:51.183Z,5.9
2022-10-20T02:02:50.784Z,5.9
2022-10-20T02:04:50.806Z,5.9
2022-10-20T02:06:50.743Z,5.9
2022-10-20T02:08:51.092Z,5.9
2022-10-20T02:10:50.771Z,5.9
2022-10-20T02:12:50.310Z,5.9
2022-10-20T02:14:50.896Z,5.9
2022-10-20T02:16:50.606Z,5.9
2022-10-20T02:18:50.325Z,5.9
2022-10-20T02:20:50.079Z,5.8
2022-10-20T02:22:49.976Z,5.8
2022-10-20T02:24:50.624Z,5.8
2022-10-20T02:26:50.447Z,5.8
2022-10-20T02:28:49.999Z,5.8
2022-10-20T02:30:50.448Z,5.8
2022-10-20T02:32:50.907Z,5.8
2022-10-20T02:34:49.980Z,5.8
2022-10-20T02:36:50.902Z,5.8
2022-10-20T02:38:50.448Z,5.7
2022-10-20T02:40:49.955Z,5.7
2022-10-20T02:42:50.439Z,5.7
2022-10-20T02:44:49.915Z,5.7
2022-10-20T02:46:50.854Z,5.8
2022-10-20T02:48:50.390Z,5.8
2022-10-20T02:50:50.931Z,5.8
2022-10-20T02:52:50.357Z,5.8
2022-10-20T02:54:50.878Z,5.8
2022-10-20T02:56:50.569Z,5.8
2022-10-20T02:58:50.146Z,5.7
2022-10-20T03:00:50.624Z,5.7
2022-10-20T03:02:50.301Z,5.7
2022-10-20T03:04:50.410Z,5.7
2022-10-20T03:06:50.317Z,5.7
2022-10-20T03:08:50.981Z,5.7
2022-10-20T03:10:50.513Z,5.7
2022-10-20T03:12:50.103Z,5.7
2022-10-20T03:14:50.632Z,5.6
2022-10-20T03:16:50.391Z,5.6
2022-10-20T03:18:49.922Z,5.6
2022-10-20T03:20:50.354Z,5.6
2022-10-20T03:22:50.063Z,5.6
2022-10-20T03:24:50.571Z,5.6
2022-10-20T03:26:50.371Z,5.6
2022-10-20T03:28:50.861Z,5.5
2022-10-20T03:30:50.262Z,5.5
2022-10-20T03:32:50.712Z,5.5
2022-10-20T03:34:50.658Z,5.4
2022-10-20T03:36:50.556Z,5.4
2022-10-20T03:38:50.022Z,5.4
2022-10-20T03:40:50.729Z,5.4
2022-10-20T03:42:50.288Z,5.4
2022-10-20T03:44:50.740Z,5.3
2022-10-20T03:46:50.584Z,5.3
2022-10-20T03:48:50.022Z,5.3
2022-10-20T03:50:50.671Z,5.3
2022-10-20T03:52:50.115Z,5.3
2022-10-20T03:54:50.632Z,5.3
2022-10-20T03:56:50.521Z,5.3
2022-10-20T03:58:51.146Z,5.3
2022-10-20T04:00:50.751Z,5.3
2022-10-20T04:02:50.232Z,5.3
2022-10-20T04:04:50.179Z,5.3
2022-10-20T04:06:50.874Z,5.2
2022-10-20T04:08:50.670Z,5.2
2022-10-20T04:10:50.394Z,5.2
2022-10-20T04:12:50.879Z,5.2
2022-10-20T04:14:50.463Z,5.2
2022-10-20T04:16:50.370Z,5.2
2022-10-20T04:18:50.804Z,5.2
2022-10-20T04:20:50.269Z,5.2
2022-10-20T04:22:50.691Z,5.1
2022-10-20T04:24:50.256Z,5.1
2022-10-20T04:28:50.768Z,5.1
2022-10-20T04:30:50.216Z,5.1
2022-10-20T04:32:50.776Z,5.0
2022-10-20T04:34:49.995Z,5.0
2022-10-20T04:36:50.698Z,5.0
2022-10-20T04:38:50.271Z,4.9
2022-10-20T04:40:50.669Z,4.9
2022-10-20T04:42:50.121Z,4.9
2022-10-20T04:44:50.870Z,4.9
2022-10-20T04:46:50.876Z,4.9
2022-10-20T04:48:50.503Z,4.9
2022-10-20T04:50:51.626Z,4.9
2022-10-20T04:52:50.292Z,4.9
2022-10-20T04:54:50.881Z,4.9
2022-10-20T04:56:50.662Z,4.9
2022-10-20T04:58:50.225Z,4.8
2022-10-20T05:00:50.728Z,4.8
2022-10-20T05:02:50.151Z,4.7
2022-10-20T05:04:50.125Z,4.7
2022-10-20T05:06:50.865Z,4.7
2022-10-20T05:08:50.694Z,4.7
2022-10-20T05:10:50.187Z,4.7
2022-10-20T05:12:50.590Z,4.7
2022-10-20T05:14:50.178Z,4.7
2022-10-20T05:16:50.003Z,4.8
2022-10-20T05:18:50.591Z,4.8
2022-10-20T05:21:10.462Z,4.8
2022-10-20T05:22:50.586Z,4.8
2022-10-20T05:24:50.053Z,4.8
2022-10-20T05:26:50.818Z,4.7
2022-10-20T05:28:50.375Z,4.7
2022-10-20T05:30:50.780Z,4.7
2022-10-20T05:32:50.315Z,4.7
2022-10-20T05:34:50.445Z,4.7
2022-10-20T05:36:50.332Z,4.7
2022-10-20T05:38:50.986Z,4.7
2022-10-20T05:40:50.515Z,4.7
2022-10-20T05:42:50.648Z,4.7
2022-10-20T05:44:50.059Z,4.7
2022-10-20T05:46:50.888Z,4.7
2022-10-20T05:48:50.371Z,4.7
2022-10-20T05:50:49.947Z,4.7
2022-10-20T05:52:50.605Z,4.7
2022-10-20T05:54:50.181Z,4.7
2022-10-20T05:56:50.905Z,4.7
2022-10-20T05:58:50.441Z,4.7
2022-10-20T06:00:49.961Z,4.7
2022-10-20T06:02:50.424Z,4.7
2022-10-20T06:04:50.416Z,4.7
2022-10-20T06:06:50.336Z,4.7
2022-10-20T06:08:51.246Z,4.7
2022-10-20T06:10:50.804Z,4.7
2022-10-20T06:12:50.235Z,4.7
2022-10-20T06:14:50.733Z,4.8
2022-10-20T06:16:50.746Z,4.9
2022-10-20T06:18:50.160Z,4.9
2022-10-20T06:20:50.769Z,4.9
2022-10-20T06:22:50.286Z,4.9
2022-10-20T06:24:50.780Z,5.0
2022-10-20T06:26:50.749Z,5.1
2022-10-20T06:28:50.248Z,5.1
2022-10-20T06:30:50.766Z,5.1
2022-10-20T06:32:50.279Z,5.2
2022-10-20T06:34:50.113Z,5.3
2022-10-20T06:36:50.078Z,5.3
2022-10-20T06:38:50.747Z,5.3
2022-10-20T06:40:50.372Z,5.3
2022-10-20T06:42:50.595Z,5.4
2022-10-20T06:44:50.356Z,5.5
2022-10-20T06:46:50.150Z,5.5
2022-10-20T06:48:59.060Z,5.5
2022-10-20T06:50:50.772Z,5.6
2022-10-20T06:52:50.329Z,5.6
2022-10-20T06:54:49.936Z,5.7
2022-10-20T06:56:50.871Z,5.8
2022-10-20T06:58:50.337Z,5.8
2022-10-20T07:00:49.890Z,5.8
2022-10-20T07:02:50.692Z,5.9
2022-10-20T07:04:50.765Z,6.0
2022-10-20T07:06:50.636Z,6.0
2022-10-20T07:08:50.575Z,6.0
2022-10-20T07:10:50.699Z,6.2
2022-10-20T07:12:50.347Z,6.2
2022-10-20T07:14:50.887Z,6.3
2022-10-20T07:16:50.827Z,6.4
2022-10-20T07:18:50.301Z,6.4
2022-10-20T07:20:50.669Z,6.5
2022-10-20T07:22:50.207Z,6.6
2022-10-20T07:24:50.756Z,6.7
2022-10-20T07:26:50.576Z,6.7
2022-10-20T07:28:56.341Z,6.8
2022-10-20T07:30:50.065Z,6.9
2022-10-20T07:32:50.574Z,7.0
2022-10-20T07:34:50.593Z,7.1
2022-10-20T07:36:50.485Z,7.1
2022-10-20T07:38:50.044Z,7.2
2022-10-20T07:40:50.562Z,7.3
2022-10-20T07:42:49.952Z,7.4
2022-10-20T07:44:50.643Z,7.4
2022-10-20T07:46:50.472Z,7.6
2022-10-20T07:48:49.920Z,7.6
2022-10-20T07:50:50.451Z,7.8
2022-10-20T07:52:50.016Z,7.8
2022-10-20T07:55:01.493Z,7.8
2022-10-20T07:56:50.175Z,8.0
2022-10-20T07:58:50.758Z,8.0
2022-10-20T08:00:50.246Z,8.2
2022-10-20T08:02:50.688Z,8.3
2022-10-20T08:04:50.725Z,8.3
2022-10-20T08:06:50.690Z,8.4
2022-10-20T08:08:50.423Z,8.5
2022-10-20T08:10:50.118Z,8.6
2022-10-20T08:12:50.684Z,8.6
2022-10-20T08:14:53.686Z,8.7
2022-10-20T08:16:52.529Z,8.7
2022-10-20T08:18:50.159Z,8.9
2022-10-20T08:20:50.582Z,9.0
2022-10-20T08:22:50.139Z,9.1
2022-10-20T08:24:50.797Z,9.1
2022-10-20T08:26:50.599Z,9.1
2022-10-20T08:28:50.131Z,9.3
2022-10-20T08:30:50.692Z,9.4
2022-10-20T08:32:50.273Z,9.5
2022-10-20T08:34:50.411Z,9.5
2022-10-20T08:36:50.120Z,9.6
2022-10-20T08:38:50.562Z,9.7
2022-10-20T08:40:49.932Z,9.7
2022-10-20T08:42:50.435Z,9.8
2022-10-20T08:44:50.879Z,9.8
2022-10-20T08:46:50.566Z,9.9
2022-10-20T08:48:50.246Z,10.0
2022-10-20T08:50:50.746Z,10.1
2022-10-20T08:52:50.113Z,10.1
2022-10-20T08:54:50.465Z,10.2
2022-10-20T08:56:50.270Z,10.3
2022-10-20T08:58:50.746Z,10.4
2022-10-20T09:00:50.228Z,10.4
2022-10-20T09:02:50.645Z,10.4
2022-10-20T09:04:50.762Z,10.6
2022-10-20T09:06:50.710Z,10.6
2022-10-20T09:08:50.523Z,10.8
2022-10-20T09:10:50.119Z,10.8
2022-10-20T09:12:50.721Z,10.8
2022-10-20T09:14:50.228Z,10.9
2022-10-20T09:17:01.381Z,11.0
2022-10-20T09:18:50.003Z,11.0
2022-10-20T09:20:50.403Z,11.0
2022-10-20T09:22:49.965Z,11.1
2022-10-20T09:24:50.405Z,11.2
2022-10-20T09:27:00.672Z,11.4
2022-10-20T09:29:13.194Z,11.4
2022-10-20T09:30:50.767Z,11.4
2022-10-20T09:32:50.388Z,11.4
2022-10-20T09:34:50.546Z,11.5
2022-10-20T09:36:50.421Z,11.6
2022-10-20T09:38:50.899Z,11.6
2022-10-20T09:40:50.422Z,11.7
2022-10-20T09:42:49.935Z,11.8
2022-10-20T09:44:50.322Z,11.8
2022-10-20T09:46:50.270Z,11.9
2022-10-20T09:48:50.795Z,11.9
2022-10-20T09:50:50.599Z,12.0
2022-10-20T09:52:50.086Z,12.1
2022-10-20T09:54:50.395Z,12.2
2022-10-20T09:56:50.090Z,12.2
2022-10-20T09:58:50.495Z,12.2
2022-10-20T10:00:50.489Z,12.3
2022-10-20T10:02:50.496Z,12.4
2022-10-20T10:04:50.506Z,12.4
2022-10-20T10:06:50.304Z,12.5
2022-10-20T10:08:51.053Z,12.5
2022-10-20T10:10:50.007Z,12.6
2022-10-20T10:12:50.751Z,12.7
2022-10-20T10:14:50.335Z,12.8
2022-10-20T10:16:50.157Z,13.0
2022-10-20T10:18:50.729Z,13.0
2022-10-20T10:20:50.166Z,13.1
2022-10-20T10:22:50.654Z,13.2
2022-10-20T10:24:50.272Z,13.3
2022-10-20T10:26:50.162Z,13.3
2022-10-20T10:28:50.828Z,13.4
2022-10-20T10:30:50.681Z,13.4
2022-10-20T10:32:50.198Z,13.5
2022-10-20T10:34:50.387Z,13.6
2022-10-20T10:36:50.321Z,13.6
2022-10-20T10:38:50.710Z,13.6
2022-10-20T10:40:50.088Z,13.7
2022-10-20T10:42:50.579Z,13.8
2022-10-20T10:44:50.104Z,13.8
2022-10-20T10:46:50.914Z,13.8
2022-10-20T10:48:50.346Z,13.8
2022-10-20T10:50:50.174Z,13.9
2022-10-20T10:52:50.607Z,13.9
2022-10-20T10:54:50.147Z,13.9
2022-10-20T10:56:50.017Z,13.9
2022-10-20T10:58:49.934Z,14.0
2022-10-20T11:00:50.740Z,14.0
2022-10-20T11:02:50.339Z,14.0
2022-10-20T11:04:50.387Z,14.0
2022-10-20T11:06:58.479Z,14.0
2022-10-20T11:08:50.164Z,14.1
2022-10-20T11:10:50.848Z,14.1
2022-10-20T11:12:50.320Z,14.2
2022-10-20T11:14:50.830Z,14.2
2022-10-20T11:16:50.774Z,14.2
2022-10-20T11:18:50.157Z,14.3
2022-10-20T11:20:50.617Z,14.3
2022-10-20T11:22:50.020Z,14.4
2022-10-20T11:24:50.554Z,14.3
2022-10-20T11:26:50.263Z,14.3
2022-10-20T11:28:50.859Z,14.4
2022-10-20T11:30:50.271Z,14.5
2022-10-20T11:32:50.902Z,14.6
2022-10-20T11:34:49.995Z,14.6
2022-10-20T11:36:50.824Z,14.7
2022-10-20T11:38:50.320Z,14.9
2022-10-20T11:40:50.848Z,14.9
2022-10-20T11:42:50.330Z,15.0
2022-10-20T11:44:50.738Z,15.1
2022-10-20T11:46:50.572Z,15.2
2022-10-20T11:48:50.003Z,15.3
2022-10-20T11:50:50.504Z,15.3
2022-10-20T11:52:49.959Z,15.4
2022-10-20T11:54:50.425Z,15.4
2022-10-20T11:56:50.318Z,15.4
2022-10-20T11:58:50.823Z,15.5
2022-10-20T12:00:50.227Z,15.5
2022-10-20T12:02:50.707Z,15.6
2022-10-20T12:04:50.021Z,15.7
2022-10-20T12:06:50.519Z,15.7
2022-10-20T12:08:50.323Z,15.7
2022-10-20T12:10:49.988Z,15.8
2022-10-20T12:12:50.454Z,15.9
2022-10-20T12:14:50.916Z,16.0
2022-10-20T12:16:50.700Z,16.1
2022-10-20T12:18:50.350Z,16.1
2022-10-20T12:20:50.862Z,16.1
2022-10-20T12:22:50.268Z,16.2
2022-10-20T12:24:50.808Z,16.2
2022-10-20T12:26:50.420Z,16.2
2022-10-20T12:28:50.896Z,16.4
2022-10-20T12:30:50.423Z,16.4
2022-10-20T12:32:49.973Z,16.5
2022-10-20T12:34:50.134Z,16.6
2022-10-20T12:36:50.373Z,16.6
2022-10-20T12:38:50.940Z,16.6
2022-10-20T12:40:50.536Z,16.6
2022-10-20T12:42:50.013Z,16.6
2022-10-20T12:44:50.481Z,16.5
2022-10-20T12:46:50.325Z,16.5
2022-10-20T12:48:50.881Z,16.5
2022-10-20T12:50:50.310Z,16.5
2022-10-20T12:52:50.732Z,16.4
2022-10-20T12:54:50.228Z,16.4
2022-10-20T12:56:50.137Z,16.4
2022-10-20T12:58:50.887Z,16.4
2022-10-20T13:00:50.471Z,16.5
2022-10-20T13:02:49.973Z,16.5
2022-10-20T13:04:50.007Z,16.5
2022-10-20T13:06:50.884Z,16.4
2022-10-20T13:08:50.540Z,16.4
2022-10-20T13:10:50.146Z,16.4
2022-10-20T13:12:50.639Z,16.4
2022-10-20T13:14:50.178Z,16.4
2022-10-20T13:16:50.126Z,16.4
2022-10-20T13:18:50.802Z,16.4
2022-10-20T13:20:50.301Z,16.5
2022-10-20T13:22:51.164Z,16.5
2022-10-20T13:24:57.049Z,16.5
2022-10-20T13:26:49.977Z,16.6
2022-10-20T13:28:50.665Z,16.6
2022-10-20T13:30:50.184Z,16.6
2022-10-20T13:33:34.172Z,16.7
2022-10-20T13:34:50.395Z,16.7
2022-10-20T13:36:50.152Z,16.8
2022-10-20T13:38:50.811Z,16.8
2022-10-20T13:40:50.603Z,16.9
2022-10-20T13:42:50.174Z,16.9
2022-10-20T13:44:50.734Z,16.9
2022-10-20T13:46:50.528Z,16.9
2022-10-20T13:48:50.006Z,17.0
2022-10-20T13:50:50.513Z,17.0
2022-10-20T13:52:50.192Z,17.0
2022-10-20T13:54:50.748Z,17.0
2022-10-20T13:56:50.722Z,17.0
2022-10-20T13:58:50.229Z,17.0
2022-10-20T14:00:50.949Z,17.1
2022-10-20T14:02:50.591Z,17.1
2022-10-20T14:04:50.609Z,17.1
2022-10-20T14:06:50.605Z,17.1
2022-10-20T14:10:50.543Z,17.1
2022-10-20T14:12:50.251Z,17.1
2022-10-20T14:14:50.720Z,17.1
2022-10-20T14:16:50.693Z,17.1
2022-10-20T14:18:50.090Z,17.1
2022-10-20T14:20:50.621Z,17.1
2022-10-20T14:22:50.164Z,17.0
2022-10-20T14:24:50.751Z,17.0
2022-10-20T14:26:50.784Z,17.0
2022-10-20T14:28:50.261Z,17.0
2022-10-20T14:30:50.828Z,17.0
2022-10-20T14:32:50.204Z,17.0
2022-10-20T14:34:50.235Z,16.9
2022-10-20T14:36:50.277Z,16.9
2022-10-20T14:38:50.891Z,16.9
2022-10-20T14:40:50.354Z,16.9
2022-10-20T14:42:50.699Z,16.8
2022-10-20T14:44:50.217Z,16.8
2022-10-20T14:46:50.085Z,16.7
2022-10-20T14:48:50.619Z,16.8
2022-10-20T14:50:50.077Z,16.8
2022-10-20T14:52:54.674Z,16.7
2022-10-20T14:54:50.086Z,16.6
2022-10-20T14:56:50.879Z,16.6
2022-10-20T14:58:50.350Z,16.6
2022-10-20T15:00:50.694Z,16.6
2022-10-20T15:02:50.101Z,16.5
2022-10-20T15:04:50.193Z,16.4
2022-10-20T15:06:50.104Z,16.4
2022-10-20T15:08:50.766Z,16.4
2022-10-20T15:10:50.366Z,16.3
2022-10-20T15:12:50.887Z,16.2
2022-10-20T15:14:50.370Z,16.2
2022-10-20T15:16:50.292Z,16.2
2022-10-20T15:18:50.872Z,16.2
2022-10-20T15:20:50.423Z,16.0
2022-10-20T15:22:55.802Z,16.0
2022-10-20T15:24:50.408Z,16.0
2022-10-20T15:26:50.167Z,16.0
2022-10-20T15:28:50.751Z,15.9
2022-10-20T15:30:50.250Z,15.8
2022-10-20T15:32:50.762Z,15.8
2022-10-20T15:34:50.107Z,15.8
2022-10-20T15:36:51.586Z,15.7
2022-10-20T15:38:50.216Z,15.7
2022-10-20T15:40:51.121Z,15.6
2022-10-20T15:42:50.786Z,15.5
2022-10-20T15:44:50.314Z,15.4
2022-10-20T15:46:50.244Z,15.4
2022-10-20T15:48:50.882Z,15.4
2022-10-20T15:50:50.265Z,15.3
2022-10-20T15:52:50.113Z,15.2
2022-10-20T15:54:50.046Z,15.1
2022-10-20T15:56:50.846Z,15.0
2022-10-20T15:58:50.411Z,15.0
2022-10-20T16:00:51.385Z,15.0
2022-10-20T16:02:50.053Z,15.0
2022-10-20T16:04:50.491Z,14.9
2022-10-20T16:06:50.268Z,14.8
2022-10-20T16:08:51.220Z,14.8
2022-10-20T16:10:50.869Z,14.8
2022-10-20T16:12:50.260Z,14.7
2022-10-20T16:14:50.704Z,14.7
2022-10-20T16:16:50.260Z,14.6
2022-10-20T16:18:50.822Z,14.6
2022-10-20T16:20:50.232Z,14.6
2022-10-20T16:22:50.740Z,14.5
2022-10-20T16:24:50.344Z,14.5
2022-10-20T16:26:50.448Z,14.4
2022-10-20T16:28:50.008Z,14.4
2022-10-20T16:30:50.453Z,14.3
2022-10-20T16:32:50.886Z,14.2
2022-10-20T16:34:50.816Z,14.2
2022-10-20T16:36:50.560Z,14.2
2022-10-20T16:38:50.122Z,14.2
2022-10-20T16:40:50.666Z,14.1
2022-10-20T16:42:50.238Z,14.1
2022-10-20T16:44:50.685Z,14.1
2022-10-20T16:46:50.646Z,14.0
2022-10-20T16:48:50.197Z,14.0
2022-10-20T16:50:50.791Z,13.9
2022-10-20T16:52:50.328Z,13.9
2022-10-20T16:54:50.818Z,13.9
2022-10-20T16:56:50.718Z,13.9
2022-10-20T16:58:50.225Z,13.8
2022-10-20T17:00:50.844Z,13.8
2022-10-20T17:02:50.542Z,13.8
2022-10-20T17:04:50.875Z,13.8
2022-10-20T17:06:50.751Z,13.8
2022-10-20T17:08:50.546Z,13.7
2022-10-20T17:10:50.282Z,13.7
2022-10-20T17:14:50.238Z,13.6
2022-10-20T17:16:50.261Z,13.7
2022-10-20T17:18:50.847Z,13.6
2022-10-20T17:20:50.399Z,13.6
2022-10-20T17:22:50.921Z,13.6
2022-10-20T17:24:50.374Z,13.6
2022-10-20T17:26:50.430Z,13.6
2022-10-20T17:28:50.002Z,13.5
2022-10-20T17:30:50.605Z,13.5
2022-10-20T17:32:50.155Z,13.5
2022-10-20T17:34:50.270Z,13.5
2022-10-20T17:36:50.167Z,13.4
2022-10-20T17:38:50.629Z,13.4
2022-10-20T17:40:50.165Z,13.4
2022-10-20T17:42:50.746Z,13.4
2022-10-20T17:44:50.402Z,13.4
2022-10-20T17:46:50.434Z,13.4
2022-10-20T17:48:50.958Z,13.4
2022-10-20T17:50:50.503Z,13.4
2022-10-20T17:52:49.992Z,13.4
2022-10-20T17:54:50.845Z,13.3
2022-10-20T17:56:50.689Z,13.3
2022-10-20T17:58:50.237Z,13.3
2022-10-20T18:00:57.943Z,13.3
2022-10-20T18:02:50.771Z,13.3
2022-10-20T18:04:50.764Z,13.3
2022-10-20T18:06:50.538Z,13.2
2022-10-20T18:08:51.316Z,13.2
2022-10-20T18:10:50.158Z,13.2
2022-10-20T18:12:50.660Z,13.2
2022-10-20T18:14:50.099Z,13.1
2022-10-20T18:16:50.839Z,13.1
2022-10-20T18:18:50.495Z,13.1
2022-10-20T18:20:49.931Z,13.1
2022-10-20T18:22:50.352Z,13.1
2022-10-20T18:24:50.771Z,13.0
2022-10-20T18:26:50.613Z,13.0
2022-10-20T18:28:50.021Z,13.0
2022-10-20T18:30:50.502Z,13.0
2022-10-20T18:32:50.961Z,12.9
2022-10-20T18:34:49.963Z,12.9
2022-10-20T18:36:50.695Z,12.9
2022-10-20T18:38:50.316Z,12.8
2022-10-20T18:40:50.752Z,12.8
2022-10-20T18:42:50.327Z,12.8
2022-10-20T18:44:50.843Z,12.8
2022-10-20T18:46:51.651Z,12.8
2022-10-20T18:48:50.077Z,12.8
2022-10-20T18:50:50.602Z,12.8
2022-10-20T18:52:50.905Z,12.8
2022-10-20T18:54:50.429Z,12.7
2022-10-20T18:56:50.162Z,12.7
2022-10-20T18:58:50.671Z,12.7
2022-10-20T19:00:50.384Z,12.7
2022-10-20T19:02:50.030Z,12.7
2022-10-20T19:04:50.110Z,12.6
2022-10-20T19:06:49.965Z,12.6
2022-10-20T19:08:50.640Z,12.6
2022-10-20T19:10:50.026Z,12.6
2022-10-20T19:12:50.476Z,12.6
2022-10-20T19:14:50.919Z,12.6
2022-10-20T19:16:50.691Z,12.6
2022-10-20T19:18:50.057Z,12.5
2022-10-20T19:20:50.411Z,12.5
2022-10-20T19:22:50.773Z,12.5
2022-10-20T19:24:50.266Z,12.5
2022-10-20T19:27:26.803Z,12.5
2022-10-20T19:28:59.124Z,12.5
2022-10-20T19:30:50.536Z,12.5
2022-10-20T19:32:50.058Z,12.5
2022-10-20T19:34:50.215Z,12.5
2022-10-20T19:36:50.086Z,12.5
2022-10-20T19:38:50.532Z,12.5
2022-10-20T19:40:50.944Z,12.5
2022-10-20T19:42:50.335Z,12.5
2022-10-20T19:44:50.685Z,12.5
2022-10-20T19:46:50.549Z,12.4
2022-10-20T19:48:50.931Z,12.4
2022-10-20T19:50:50.428Z,12.4
2022-10-20T19:52:59.131Z,12.4
2022-10-20T19:54:50.586Z,12.4
2022-10-20T19:56:50.453Z,12.4
2022-10-20T19:58:49.957Z,12.4
2022-10-20T20:00:50.653Z,12.3
2022-10-20T20:02:50.509Z,12.3
2022-10-20T20:04:50.722Z,12.3
2022-10-20T20:06:50.349Z,12.3
2022-10-20T20:08:51.111Z,12.3
2022-10-20T20:10:50.581Z,12.3
2022-10-20T20:12:50.112Z,12.3
2022-10-20T20:14:50.503Z,12.3
2022-10-20T20:16:50.256Z,12.3
2022-10-20T20:18:50.723Z,12.3
2022-10-20T20:20:50.267Z,12.3
2022-10-20T20:22:50.665Z,12.3
2022-10-20T20:24:50.153Z,12.3
2022-10-20T20:26:50.855Z,12.2
2022-10-20T20:28:50.393Z,12.2
2022-10-20T20:30:50.772Z,12.2
2022-10-20T20:32:54.707Z,12.2
2022-10-20T20:34:50.749Z,12.2
2022-10-20T20:36:50.635Z,12.3
2022-10-20T20:38:58.613Z,12.3
2022-10-20T20:40:49.953Z,12.3
2022-10-20T20:42:50.460Z,12.2
2022-10-20T20:44:50.770Z,12.3
2022-10-20T20:46:50.649Z,12.3
2022-10-20T20:48:50.010Z,12.2
2022-10-20T20:50:50.406Z,12.2
2022-10-20T20:52:50.834Z,12.3
2022-10-20T20:54:50.271Z,12.3
2022-10-20T20:56:49.964Z,12.2
2022-10-20T20:58:55.889Z,12.2
2022-10-20T21:00:50.461Z,12.2
2022-10-20T21:02:50.291Z,12.2
2022-10-20T21:04:50.243Z,12.2
2022-10-20T21:07:03.321Z,12.2
2022-10-20T21:08:50.313Z,12.2
2022-10-20T21:10:50.855Z,12.2
2022-10-20T21:12:50.278Z,12.2
2022-10-20T21:14:50.791Z,12.2
2022-10-20T21:16:50.535Z,12.2
2022-10-20T21:18:50.060Z,12.2
2022-10-20T21:20:50.556Z,12.2
2022-10-20T21:22:50.119Z,12.2
2022-10-20T21:24:50.431Z,12.1
2022-10-20T21:26:50.210Z,12.1
2022-10-20T21:28:50.654Z,12.1
2022-10-20T21:30:50.207Z,12.1
2022-10-20T21:32:50.617Z,12.1
2022-10-20T21:34:50.568Z,12.1
2022-10-20T21:36:50.429Z,12.1
2022-10-20T21:38:50.889Z,12.1
2022-10-20T21:40:50.290Z,12.1
2022-10-20T21:42:50.623Z,12.1
2022-10-20T21:44:50.049Z,12.1
2022-10-20T21:46:49.914Z,12.1
2022-10-20T21:48:50.397Z,12.1
2022-10-20T21:50:50.814Z,12.1
2022-10-20T21:52:50.270Z,12.1
2022-10-20T21:54:50.652Z,12.1
2022-10-20T21:56:50.503Z,12.1
2022-10-20T21:58:50.887Z,12.1
2022-10-20T22:00:50.634Z,12.1
2022-10-20T22:02:50.070Z,12.1
2022-10-20T22:04:49.973Z,12.1
2022-10-20T22:06:50.634Z,12.1
2022-10-20T22:08:50.439Z,12.0
2022-10-20T22:10:50.057Z,12.0
2022-10-20T22:12:50.506Z,12.0
2022-10-20T22:14:49.950Z,12.0
2022-10-20T22:16:50.868Z,12.0
2022-10-20T22:18:50.299Z,11.9
2022-10-20T22:20:50.905Z,11.9
2022-10-20T22:22:50.242Z,11.8
2022-10-20T22:24:50.779Z,11.8
2022-10-20T22:26:50.519Z,11.8
2022-10-20T22:28:50.138Z,11.8
2022-10-20T22:30:50.939Z,11.8
2022-10-20T22:32:50.559Z,11.8
2022-10-20T22:34:50.737Z,11.8
2022-10-20T22:36:50.436Z,11.8
2022-10-20T22:38:50.790Z,11.8
2022-10-20T22:40:50.221Z,11.8
2022-10-20T22:42:50.611Z,11.8
2022-10-20T22:44:50.015Z,11.8
2022-10-20T22:46:50.893Z,11.8
2022-10-20T22:48:50.563Z,11.8
2022-10-20T22:50:50.054Z,11.8
2022-10-20T22:52:50.432Z,11.8
2022-10-20T22:54:50.890Z,11.8
2022-10-20T22:56:50.759Z,11.8
2022-10-20T22:58:50.177Z,11.8
2022-10-20T23:00:51.157Z,11.8
2022-10-20T23:02:50.626Z,11.8
2022-10-20T23:04:50.514Z,11.8
2022-10-20T23:06:50.555Z,11.8
2022-10-20T23:08:50.584Z,11.8
2022-10-20T23:10:50.338Z,11.8
2022-10-20T23:12:50.761Z,11.8
2022-10-20T23:14:50.214Z,11.8
2022-10-20T23:16:50.001Z,11.8
2022-10-20T23:18:50.410Z,11.8
2022-10-20T23:20:50.700Z,11.8
2022-10-20T23:22:50.316Z,11.8
2022-10-20T23:24:50.876Z,11.8
2022-10-20T23:26:50.591Z,11.7
2022-10-20T23:28:50.186Z,11.7
2022-10-20T23:30:50.695Z,11.7
2022-10-20T23:32:50.136Z,11.7
2022-10-20T23:34:50.313Z,11.7
2022-10-20T23:36:50.081Z,11.7
2022-10-20T23:38:50.511Z,11.7
2022-10-20T23:40:50.877Z,11.7
2022-10-20T23:42:50.396Z,11.7
2022-10-20T23:44:50.754Z,11.7
2022-10-20T23:46:50.486Z,11.7
2022-10-20T23:48:50.877Z,11.7
2022-10-20T23:50:50.285Z,11.7
2022-10-20T23:52:50.647Z,11.7
2022-10-20T23:54:50.082Z,11.7
2022-10-20T23:56:50.819Z,11.7
2022-10-20T23:58:50.171Z,11.7
